sensor_id;sensor_type;location;lat;lon;timestamp;temperature;humidity
12223;DHT22;6174;49.058;8.524;2023-05-01T05:00:57;10.50;99.90
12223;DHT22;6174;49.058;8.524;2023-05-01T05:03:24;10.60;99.90
12223;DHT22;6174;49.058;8.524;2023-05-01T05:05:51;10.60;99.90
12223;DHT22;6174;49.058;8.524;2023-05-01T05:08:18;10.70;99.90
12223;DHT22;6174;49.058;8.524;2023-05-01T05:10:46;10.70;99.90
12223;DHT22;6174;49.058;8.524;2023-05-01T05:13:12;10.70;99.90
12223;DHT22;6174;49.058;8.524;2023-05-01T05:15:39;10.70;99.90
12223;DHT22;6174;49.058;8.524;2023-05-01T05:18:07;10.70;99.90
12223;DHT22;6174;49.058;8.524;2023-05-01T05:20:37;11.00;99.90
12223;DHT22;6174;49.058;8.524;2023-05-01T05:23:04;10.80;99.90
12223;DHT22;6174;49.058;8.524;2023-05-01T05:25:31;10.80;99.90
12223;DHT22;6174;49.058;8.524;2023-05-01T05:27:58;10.80;99.90
12223;DHT22;6174;49.058;8.524;2023-05-01T05:30:25;10.90;99.90
12223;DHT22;6174;49.058;8.524;2023-05-01T05:32:52;11.00;99.90
12223;DHT22;6174;49.058;8.524;2023-05-01T05:35:20;10.90;99.90
12223;DHT22;6174;49.058;8.524;2023-05-01T05:37:47;11.10;99.90
12223;DHT22;6174;49.058;8.524;2023-05-01T05:40:15;11.10;99.90
12223;DHT22;6174;49.058;8.524;2023-05-01T05:42:41;11.20;99.90
12223;DHT22;6174;49.058;8.524;2023-05-01T05:45:09;11.20;99.90
12223;DHT22;6174;49.058;8.524;2023-05-01T05:47:36;11.20;99.90
12223;DHT22;6174;49.058;8.524;2023-05-01T05:50:04;11.30;99.90
12223;DHT22;6174;49.058;8.524;2023-05-01T05:52:33;11.30;99.90
12223;DHT22;6174;49.058;8.524;2023-05-01T05:55:00;11.40;99.90
12223;DHT22;6174;49.058;8.524;2023-05-01T05:57:26;11.40;99.90
12223;DHT22;6174;49.058;8.524;2023-05-01T05:59:53;11.50;99.90
12223;DHT22;6174;49.058;8.524;2023-05-01T06:02:20;11.50;99.90
12223;DHT22;6174;49.058;8.524;2023-05-01T06:04:47;11.70;99.90
12223;DHT22;6174;49.058;8.524;2023-05-01T06:07:14;11.70;99.90
12223;DHT22;6174;49.058;8.524;2023-05-01T06:09:43;12.00;99.90
12223;DHT22;6174;49.058;8.524;2023-05-01T06:12:10;11.60;99.90
12223;DHT22;6174;49.058;8.524;2023-05-01T06:14:36;11.70;99.90
12223;DHT22;6174;49.058;8.524;2023-05-01T06:17:04;11.70;99.90
12223;DHT22;6174;49.058;8.524;2023-05-01T06:19:31;11.80;99.90
12223;DHT22;6174;49.058;8.524;2023-05-01T06:21:58;11.80;99.90
12223;DHT22;6174;49.058;8.524;2023-05-01T06:24:25;11.80;99.90
12223;DHT22;6174;49.058;8.524;2023-05-01T06:26:53;11.80;99.90
12223;DHT22;6174;49.058;8.524;2023-05-01T06:29:20;11.90;99.90
12223;DHT22;6174;49.058;8.524;2023-05-01T06:31:46;11.90;99.90
12223;DHT22;6174;49.058;8.524;2023-05-01T06:34:13;12.00;99.90
12223;DHT22;6174;49.058;8.524;2023-05-01T06:36:40;12.00;99.90
12223;DHT22;6174;49.058;8.524;2023-05-01T06:39:07;12.00;99.90
12223;DHT22;6174;49.058;8.524;2023-05-01T06:41:33;12.10;99.90
12223;DHT22;6174;49.058;8.524;2023-05-01T06:44:02;12.20;99.90
12223;DHT22;6174;49.058;8.524;2023-05-01T06:46:29;12.20;99.90
12223;DHT22;6174;49.058;8.524;2023-05-01T06:48:55;12.20;99.90
12223;DHT22;6174;49.058;8.524;2023-05-01T06:51:22;12.30;99.90
12223;DHT22;6174;49.058;8.524;2023-05-01T06:53:49;12.30;99.90
12223;DHT22;6174;49.058;8.524;2023-05-01T06:56:16;12.20;99.90
12223;DHT22;6174;49.058;8.524;2023-05-01T06:58:42;12.20;99.90
12223;DHT22;6174;49.058;8.524;2023-05-01T07:01:10;12.10;99.90
12223;DHT22;6174;49.058;8.524;2023-05-01T07:03:37;12.30;99.90
12223;DHT22;6174;49.058;8.524;2023-05-01T07:06:04;12.30;99.90
12223;DHT22;6174;49.058;8.524;2023-05-01T07:08:31;12.40;99.90
12223;DHT22;6174;49.058;8.524;2023-05-01T07:10:58;12.40;99.90
12223;DHT22;6174;49.058;8.524;2023-05-01T07:13:25;12.50;99.90
12223;DHT22;6174;49.058;8.524;2023-05-01T07:15:52;12.60;99.90
12223;DHT22;6174;49.058;8.524;2023-05-01T07:18:20;12.60;99.90
12223;DHT22;6174;49.058;8.524;2023-05-01T07:20:47;12.50;99.90
12223;DHT22;6174;49.058;8.524;2023-05-01T07:23:14;12.50;99.90
12223;DHT22;6174;49.058;8.524;2023-05-01T07:25:42;12.70;99.90
12223;DHT22;6174;49.058;8.524;2023-05-01T07:28:09;12.60;99.90
12223;DHT22;6174;49.058;8.524;2023-05-01T07:30:36;12.60;99.90
12223;DHT22;6174;49.058;8.524;2023-05-01T07:33:03;12.60;99.90
12223;DHT22;6174;49.058;8.524;2023-05-01T07:35:32;12.60;99.90
12223;DHT22;6174;49.058;8.524;2023-05-01T07:37:59;12.60;99.90
12223;DHT22;6174;49.058;8.524;2023-05-01T07:40:25;12.60;99.90
12223;DHT22;6174;49.058;8.524;2023-05-01T07:42:52;12.60;99.90
12223;DHT22;6174;49.058;8.524;2023-05-01T07:45:19;12.60;99.90
12223;DHT22;6174;49.058;8.524;2023-05-01T07:47:46;12.60;99.90
12223;DHT22;6174;49.058;8.524;2023-05-01T07:50:14;12.70;99.90
12223;DHT22;6174;49.058;8.524;2023-05-01T07:52:42;12.70;99.90
12223;DHT22;6174;49.058;8.524;2023-05-01T07:55:10;12.70;99.90
12223;DHT22;6174;49.058;8.524;2023-05-01T07:57:36;12.70;99.90
12223;DHT22;6174;49.058;8.524;2023-05-01T08:00:04;13.30;99.90
12223;DHT22;6174;49.058;8.524;2023-05-01T08:02:31;12.80;99.90
12223;DHT22;6174;49.058;8.524;2023-05-01T08:04:58;12.80;99.90
12223;DHT22;6174;49.058;8.524;2023-05-01T08:07:25;12.80;99.90
12223;DHT22;6174;49.058;8.524;2023-05-01T08:09:53;12.90;99.90
12223;DHT22;6174;49.058;8.524;2023-05-01T08:12:20;13.00;99.90
12223;DHT22;6174;49.058;8.524;2023-05-01T08:14:47;13.00;99.90
12223;DHT22;6174;49.058;8.524;2023-05-01T08:17:13;13.10;99.90
12223;DHT22;6174;49.058;8.524;2023-05-01T08:19:40;13.10;99.90
12223;DHT22;6174;49.058;8.524;2023-05-01T08:22:07;13.20;99.90
12223;DHT22;6174;49.058;8.524;2023-05-01T08:24:34;13.30;99.90
12223;DHT22;6174;49.058;8.524;2023-05-01T08:27:02;13.30;99.90
12223;DHT22;6174;49.058;8.524;2023-05-01T08:29:29;13.40;99.90
12223;DHT22;6174;49.058;8.524;2023-05-01T08:31:57;13.30;99.90
12223;DHT22;6174;49.058;8.524;2023-05-01T08:34:24;13.50;99.90
12223;DHT22;6174;49.058;8.524;2023-05-01T08:36:51;13.60;99.90
12223;DHT22;6174;49.058;8.524;2023-05-01T08:39:18;13.70;99.90
12223;DHT22;6174;49.058;8.524;2023-05-01T08:41:45;13.80;99.90
12223;DHT22;6174;49.058;8.524;2023-05-01T08:44:14;13.90;99.90
12223;DHT22;6174;49.058;8.524;2023-05-01T08:46:46;14.00;99.90
12223;DHT22;6174;49.058;8.524;2023-05-01T08:49:15;14.10;99.90
12223;DHT22;6174;49.058;8.524;2023-05-01T08:51:44;14.10;99.90
12223;DHT22;6174;49.058;8.524;2023-05-01T08:54:13;14.20;99.90
12223;DHT22;6174;49.058;8.524;2023-05-01T08:56:42;14.30;99.90
12223;DHT22;6174;49.058;8.524;2023-05-01T08:59:10;14.30;99.90
12223;DHT22;6174;49.058;8.524;2023-05-01T09:01:39;14.50;99.90
12223;DHT22;6174;49.058;8.524;2023-05-01T09:04:07;14.40;99.90
12223;DHT22;6174;49.058;8.524;2023-05-01T09:06:34;14.50;99.90
12223;DHT22;6174;49.058;8.524;2023-05-01T09:09:01;14.50;99.90
12223;DHT22;6174;49.058;8.524;2023-05-01T09:11:29;14.40;99.90
12223;DHT22;6174;49.058;8.524;2023-05-01T09:13:56;14.30;99.90
12223;DHT22;6174;49.058;8.524;2023-05-01T09:16:23;14.30;99.90
12223;DHT22;6174;49.058;8.524;2023-05-01T09:18:52;14.20;99.90
12223;DHT22;6174;49.058;8.524;2023-05-01T09:21:20;14.30;99.90
12223;DHT22;6174;49.058;8.524;2023-05-01T09:23:49;14.40;99.90
12223;DHT22;6174;49.058;8.524;2023-05-01T09:26:18;14.60;99.90
12223;DHT22;6174;49.058;8.524;2023-05-01T09:28:47;14.60;99.90
12223;DHT22;6174;49.058;8.524;2023-05-01T09:31:20;14.70;99.90
12223;DHT22;6174;49.058;8.524;2023-05-01T09:33:52;14.70;99.90
12223;DHT22;6174;49.058;8.524;2023-05-01T09:36:23;14.80;99.90
12223;DHT22;6174;49.058;8.524;2023-05-01T09:38:50;14.90;99.90
12223;DHT22;6174;49.058;8.524;2023-05-01T09:41:18;15.10;99.90
12223;DHT22;6174;49.058;8.524;2023-05-01T09:43:50;15.10;99.90
12223;DHT22;6174;49.058;8.524;2023-05-01T09:46:17;15.30;99.90
12223;DHT22;6174;49.058;8.524;2023-05-01T09:48:56;15.40;99.90
12223;DHT22;6174;49.058;8.524;2023-05-01T09:51:25;15.50;99.90
12223;DHT22;6174;49.058;8.524;2023-05-01T09:53:54;15.50;99.90
12223;DHT22;6174;49.058;8.524;2023-05-01T09:56:21;15.60;99.90
12223;DHT22;6174;49.058;8.524;2023-05-01T09:58:49;15.60;99.90
12223;DHT22;6174;49.058;8.524;2023-05-01T10:01:16;15.80;99.90
12223;DHT22;6174;49.058;8.524;2023-05-01T10:03:43;15.80;99.90
12223;DHT22;6174;49.058;8.524;2023-05-01T10:06:25;15.70;99.90
12223;DHT22;6174;49.058;8.524;2023-05-01T10:08:53;15.60;99.90
12223;DHT22;6174;49.058;8.524;2023-05-01T10:11:20;15.60;99.90
12223;DHT22;6174;49.058;8.524;2023-05-01T10:14:04;15.70;99.90
12223;DHT22;6174;49.058;8.524;2023-05-01T10:16:34;15.70;99.90
12223;DHT22;6174;49.058;8.524;2023-05-01T10:19:02;15.60;99.90
12223;DHT22;6174;49.058;8.524;2023-05-01T10:21:31;15.50;99.90
12223;DHT22;6174;49.058;8.524;2023-05-01T10:23:59;15.50;99.90
12223;DHT22;6174;49.058;8.524;2023-05-01T10:26:27;15.50;99.90
12223;DHT22;6174;49.058;8.524;2023-05-01T10:28:54;15.50;99.90
12223;DHT22;6174;49.058;8.524;2023-05-01T10:31:23;15.60;99.90
12223;DHT22;6174;49.058;8.524;2023-05-01T10:33:51;15.70;99.90
12223;DHT22;6174;49.058;8.524;2023-05-01T10:36:21;15.80;99.90
12223;DHT22;6174;49.058;8.524;2023-05-01T10:38:50;15.70;99.90
12223;DHT22;6174;49.058;8.524;2023-05-01T10:44:19;15.80;99.90
12223;DHT22;6174;49.058;8.524;2023-05-01T10:46:46;15.90;99.90
12223;DHT22;6174;49.058;8.524;2023-05-01T10:49:12;15.80;99.90
12223;DHT22;6174;49.058;8.524;2023-05-01T10:51:56;15.60;99.90
12223;DHT22;6174;49.058;8.524;2023-05-01T10:54:26;15.50;99.90
12223;DHT22;6174;49.058;8.524;2023-05-01T10:56:54;15.50;99.90
12223;DHT22;6174;49.058;8.524;2023-05-01T10:59:21;15.30;99.90
12223;DHT22;6174;49.058;8.524;2023-05-01T11:01:49;15.40;99.90
12223;DHT22;6174;49.058;8.524;2023-05-01T11:04:45;15.90;99.90
12223;DHT22;6174;49.058;8.524;2023-05-01T11:07:19;15.60;99.90
12223;DHT22;6174;49.058;8.524;2023-05-01T11:09:49;15.70;99.90
12223;DHT22;6174;49.058;8.524;2023-05-01T11:12:48;15.80;99.90
12223;DHT22;6174;49.058;8.524;2023-05-01T11:15:29;15.80;99.90
12223;DHT22;6174;49.058;8.524;2023-05-01T11:17:57;15.80;99.90
12223;DHT22;6174;49.058;8.524;2023-05-01T11:20:48;15.70;99.90
12223;DHT22;6174;49.058;8.524;2023-05-01T11:23:19;15.70;99.90
12223;DHT22;6174;49.058;8.524;2023-05-01T11:25:48;15.60;99.90
12223;DHT22;6174;49.058;8.524;2023-05-01T11:28:18;15.60;99.90
12223;DHT22;6174;49.058;8.524;2023-05-01T11:30:47;15.70;99.90
12223;DHT22;6174;49.058;8.524;2023-05-01T11:33:21;15.70;99.90
12223;DHT22;6174;49.058;8.524;2023-05-01T11:36:00;15.70;99.90
12223;DHT22;6174;49.058;8.524;2023-05-01T11:38:27;15.70;99.90
12223;DHT22;6174;49.058;8.524;2023-05-01T11:40:57;15.60;99.90
12223;DHT22;6174;49.058;8.524;2023-05-01T11:43:25;15.70;99.90
12223;DHT22;6174;49.058;8.524;2023-05-01T11:45:52;15.70;99.90
12223;DHT22;6174;49.058;8.524;2023-05-01T11:48:27;15.70;99.90
12223;DHT22;6174;49.058;8.524;2023-05-01T11:50:54;15.70;99.90
12223;DHT22;6174;49.058;8.524;2023-05-01T11:53:21;15.80;99.90
12223;DHT22;6174;49.058;8.524;2023-05-01T11:55:48;15.80;99.90
12223;DHT22;6174;49.058;8.524;2023-05-01T11:58:17;15.90;99.90
12223;DHT22;6174;49.058;8.524;2023-05-01T12:00:55;16.00;99.90
12223;DHT22;6174;49.058;8.524;2023-05-01T12:03:22;16.00;99.90
12223;DHT22;6174;49.058;8.524;2023-05-01T12:05:49;16.00;99.90
12223;DHT22;6174;49.058;8.524;2023-05-01T12:08:18;16.10;99.90
12223;DHT22;6174;49.058;8.524;2023-05-01T12:10:47;16.10;99.90
12223;DHT22;6174;49.058;8.524;2023-05-01T12:13:16;16.10;99.90
12223;DHT22;6174;49.058;8.524;2023-05-01T12:15:45;16.20;99.90
12223;DHT22;6174;49.058;8.524;2023-05-01T12:18:13;16.20;99.90
12223;DHT22;6174;49.058;8.524;2023-05-01T12:20:42;16.30;99.90
12223;DHT22;6174;49.058;8.524;2023-05-01T12:23:10;16.20;99.90
12223;DHT22;6174;49.058;8.524;2023-05-01T12:25:38;16.20;99.90
12223;DHT22;6174;49.058;8.524;2023-05-01T12:28:10;16.20;99.90
12223;DHT22;6174;49.058;8.524;2023-05-01T12:30:39;16.20;99.90
12223;DHT22;6174;49.058;8.524;2023-05-01T12:33:08;16.20;99.90
12223;DHT22;6174;49.058;8.524;2023-05-01T12:35:35;16.20;99.90
12223;DHT22;6174;49.058;8.524;2023-05-01T12:38:09;16.20;99.90
12223;DHT22;6174;49.058;8.524;2023-05-01T12:40:37;16.20;99.90
12223;DHT22;6174;49.058;8.524;2023-05-01T12:43:04;16.10;99.90
12223;DHT22;6174;49.058;8.524;2023-05-01T12:45:39;16.10;99.90
12223;DHT22;6174;49.058;8.524;2023-05-01T12:48:11;16.10;99.90
12223;DHT22;6174;49.058;8.524;2023-05-01T12:50:39;16.00;99.90
12223;DHT22;6174;49.058;8.524;2023-05-01T12:53:07;16.00;99.90
12223;DHT22;6174;49.058;8.524;2023-05-01T12:55:44;16.00;99.90
12223;DHT22;6174;49.058;8.524;2023-05-01T12:58:12;16.00;99.90
12223;DHT22;6174;49.058;8.524;2023-05-01T13:00:47;16.00;99.90
12223;DHT22;6174;49.058;8.524;2023-05-01T13:03:21;16.00;99.90
12223;DHT22;6174;49.058;8.524;2023-05-01T13:05:56;16.00;99.90
12223;DHT22;6174;49.058;8.524;2023-05-01T13:08:28;16.00;99.90
12223;DHT22;6174;49.058;8.524;2023-05-01T13:11:10;16.00;99.90
12223;DHT22;6174;49.058;8.524;2023-05-01T13:13:38;15.90;99.90
12223;DHT22;6174;49.058;8.524;2023-05-01T13:16:07;16.00;99.90
12223;DHT22;6174;49.058;8.524;2023-05-01T13:18:45;15.90;99.90
12223;DHT22;6174;49.058;8.524;2023-05-01T13:21:14;15.90;99.90
12223;DHT22;6174;49.058;8.524;2023-05-01T13:23:41;15.90;99.90
12223;DHT22;6174;49.058;8.524;2023-05-01T13:26:09;16.00;99.90
12223;DHT22;6174;49.058;8.524;2023-05-01T13:28:41;15.90;99.90
12223;DHT22;6174;49.058;8.524;2023-05-01T13:31:12;15.90;99.90
12223;DHT22;6174;49.058;8.524;2023-05-01T13:33:40;15.90;99.90
12223;DHT22;6174;49.058;8.524;2023-05-01T13:36:08;15.90;99.90
12223;DHT22;6174;49.058;8.524;2023-05-01T13:38:41;16.00;99.90
12223;DHT22;6174;49.058;8.524;2023-05-01T13:41:13;16.00;99.90
12223;DHT22;6174;49.058;8.524;2023-05-01T13:43:40;16.00;99.90
12223;DHT22;6174;49.058;8.524;2023-05-01T13:46:08;16.10;99.90
12223;DHT22;6174;49.058;8.524;2023-05-01T13:48:38;16.10;99.90
12223;DHT22;6174;49.058;8.524;2023-05-01T13:51:06;16.20;99.90
12223;DHT22;6174;49.058;8.524;2023-05-01T13:53:33;16.30;99.90
12223;DHT22;6174;49.058;8.524;2023-05-01T13:56:02;16.40;99.90
12223;DHT22;6174;49.058;8.524;2023-05-01T13:58:29;16.50;99.90
12223;DHT22;6174;49.058;8.524;2023-05-01T14:00:56;16.60;99.90
12223;DHT22;6174;49.058;8.524;2023-05-01T14:03:23;16.60;99.90
12223;DHT22;6174;49.058;8.524;2023-05-01T14:05:51;16.90;99.90
12223;DHT22;6174;49.058;8.524;2023-05-01T14:08:19;17.10;99.90
12223;DHT22;6174;49.058;8.524;2023-05-01T14:10:47;17.30;99.90
12223;DHT22;6174;49.058;8.524;2023-05-01T14:13:16;17.30;99.90
12223;DHT22;6174;49.058;8.524;2023-05-01T14:15:43;17.30;99.90
12223;DHT22;6174;49.058;8.524;2023-05-01T14:18:11;17.30;99.90
12223;DHT22;6174;49.058;8.524;2023-05-01T14:23:09;17.20;99.90
12223;DHT22;6174;49.058;8.524;2023-05-01T14:25:37;17.20;99.90
12223;DHT22;6174;49.058;8.524;2023-05-01T14:28:05;17.20;99.90
12223;DHT22;6174;49.058;8.524;2023-05-01T14:30:33;17.20;98.70
12223;DHT22;6174;49.058;8.524;2023-05-01T14:33:03;17.40;98.60
12223;DHT22;6174;49.058;8.524;2023-05-01T14:35:30;17.40;98.70
12223;DHT22;6174;49.058;8.524;2023-05-01T14:38:06;17.40;98.10
12223;DHT22;6174;49.058;8.524;2023-05-01T14:40:34;17.30;98.70
12223;DHT22;6174;49.058;8.524;2023-05-01T14:43:01;17.20;97.50
12223;DHT22;6174;49.058;8.524;2023-05-01T14:45:28;17.10;98.50
12223;DHT22;6174;49.058;8.524;2023-05-01T14:47:56;17.00;99.40
12223;DHT22;6174;49.058;8.524;2023-05-01T14:50:23;16.90;99.40
12223;DHT22;6174;49.058;8.524;2023-05-01T14:52:56;16.80;99.40
12223;DHT22;6174;49.058;8.524;2023-05-01T14:55:25;16.80;99.90
12223;DHT22;6174;49.058;8.524;2023-05-01T14:57:55;16.70;99.90
12223;DHT22;6174;49.058;8.524;2023-05-01T15:00:23;16.70;99.90
12223;DHT22;6174;49.058;8.524;2023-05-01T15:02:50;16.60;99.90
12223;DHT22;6174;49.058;8.524;2023-05-01T15:05:17;16.60;99.80
12223;DHT22;6174;49.058;8.524;2023-05-01T15:07:44;16.60;99.90
12223;DHT22;6174;49.058;8.524;2023-05-01T15:10:11;16.60;99.90
12223;DHT22;6174;49.058;8.524;2023-05-01T15:12:38;16.50;99.90
12223;DHT22;6174;49.058;8.524;2023-05-01T15:15:08;16.50;99.90
12223;DHT22;6174;49.058;8.524;2023-05-01T15:17:34;16.40;99.90
12223;DHT22;6174;49.058;8.524;2023-05-01T15:20:01;16.40;99.90
12223;DHT22;6174;49.058;8.524;2023-05-01T15:22:28;16.50;99.90
12223;DHT22;6174;49.058;8.524;2023-05-01T15:24:55;16.50;99.90
12223;DHT22;6174;49.058;8.524;2023-05-01T15:27:21;16.50;99.90
12223;DHT22;6174;49.058;8.524;2023-05-01T15:29:48;16.60;99.90
12223;DHT22;6174;49.058;8.524;2023-05-01T15:32:16;16.60;99.90
12223;DHT22;6174;49.058;8.524;2023-05-01T15:34:43;16.70;99.90
12223;DHT22;6174;49.058;8.524;2023-05-01T15:37:10;16.70;99.90
12223;DHT22;6174;49.058;8.524;2023-05-01T15:39:37;16.80;99.90
12223;DHT22;6174;49.058;8.524;2023-05-01T15:42:04;16.80;99.90
12223;DHT22;6174;49.058;8.524;2023-05-01T15:44:32;16.80;99.90
12223;DHT22;6174;49.058;8.524;2023-05-01T15:46:58;16.80;99.90
12223;DHT22;6174;49.058;8.524;2023-05-01T15:49:27;16.80;99.90
12223;DHT22;6174;49.058;8.524;2023-05-01T15:51:53;16.70;99.90
12223;DHT22;6174;49.058;8.524;2023-05-01T15:54:21;16.70;99.90
12223;DHT22;6174;49.058;8.524;2023-05-01T15:56:49;16.70;99.90
12223;DHT22;6174;49.058;8.524;2023-05-01T15:59:17;16.70;99.90
12223;DHT22;6174;49.058;8.524;2023-05-01T16:01:44;16.70;99.90
12223;DHT22;6174;49.058;8.524;2023-05-01T16:04:11;16.70;99.90
12223;DHT22;6174;49.058;8.524;2023-05-01T16:06:40;16.70;99.90
12223;DHT22;6174;49.058;8.524;2023-05-01T16:09:07;16.70;99.90
12223;DHT22;6174;49.058;8.524;2023-05-01T16:11:35;16.60;99.90
12223;DHT22;6174;49.058;8.524;2023-05-01T16:14:02;16.70;99.90
12223;DHT22;6174;49.058;8.524;2023-05-01T16:16:29;16.60;99.90
12223;DHT22;6174;49.058;8.524;2023-05-01T16:18:57;16.60;99.90
12223;DHT22;6174;49.058;8.524;2023-05-01T16:21:25;16.60;99.80
12223;DHT22;6174;49.058;8.524;2023-05-01T16:23:54;16.60;99.00
12223;DHT22;6174;49.058;8.524;2023-05-01T16:26:23;16.60;99.90
12223;DHT22;6174;49.058;8.524;2023-05-01T16:28:50;16.60;99.90
12223;DHT22;6174;49.058;8.524;2023-05-01T16:31:17;16.60;99.90
12223;DHT22;6174;49.058;8.524;2023-05-01T16:33:44;16.60;99.90
12223;DHT22;6174;49.058;8.524;2023-05-01T16:36:18;16.60;99.90
12223;DHT22;6174;49.058;8.524;2023-05-01T16:38:46;16.50;99.90
12223;DHT22;6174;49.058;8.524;2023-05-01T16:41:17;16.30;99.90
12223;DHT22;6174;49.058;8.524;2023-05-01T16:43:44;16.20;99.90
12223;DHT22;6174;49.058;8.524;2023-05-01T16:46:12;16.10;99.90
12223;DHT22;6174;49.058;8.524;2023-05-01T16:48:40;16.00;99.90
12223;DHT22;6174;49.058;8.524;2023-05-01T16:51:08;15.90;99.90
12223;DHT22;6174;49.058;8.524;2023-05-01T16:53:35;15.80;99.90
12223;DHT22;6174;49.058;8.524;2023-05-01T16:56:03;15.50;99.90
12223;DHT22;6174;49.058;8.524;2023-05-01T16:58:31;15.30;99.90
12223;DHT22;6174;49.058;8.524;2023-05-01T17:00:58;15.20;99.90
12223;DHT22;6174;49.058;8.524;2023-05-01T17:03:25;15.00;99.90
12223;DHT22;6174;49.058;8.524;2023-05-01T17:05:52;15.10;99.90
12223;DHT22;6174;49.058;8.524;2023-05-01T17:08:20;15.00;99.90
12223;DHT22;6174;49.058;8.524;2023-05-01T17:10:46;14.90;99.90
12223;DHT22;6174;49.058;8.524;2023-05-01T17:13:13;14.90;99.90
12223;DHT22;6174;49.058;8.524;2023-05-01T17:15:41;14.80;99.90
12223;DHT22;6174;49.058;8.524;2023-05-01T17:18:08;14.80;99.90
12223;DHT22;6174;49.058;8.524;2023-05-01T17:20:35;14.70;99.90
12223;DHT22;6174;49.058;8.524;2023-05-01T17:23:02;14.60;99.90
12223;DHT22;6174;49.058;8.524;2023-05-01T17:25:29;14.60;99.90
12223;DHT22;6174;49.058;8.524;2023-05-01T17:27:55;14.60;99.90
12223;DHT22;6174;49.058;8.524;2023-05-01T17:30:23;14.60;99.90
12223;DHT22;6174;49.058;8.524;2023-05-01T17:32:51;14.60;99.90
12223;DHT22;6174;49.058;8.524;2023-05-01T17:35:18;14.60;99.90
12223;DHT22;6174;49.058;8.524;2023-05-01T17:37:45;14.70;99.90
12223;DHT22;6174;49.058;8.524;2023-05-01T17:40:12;14.70;99.90
12223;DHT22;6174;49.058;8.524;2023-05-01T17:42:39;14.70;99.90
12223;DHT22;6174;49.058;8.524;2023-05-01T17:45:07;14.70;99.90
12223;DHT22;6174;49.058;8.524;2023-05-01T17:47:35;14.70;99.90
12223;DHT22;6174;49.058;8.524;2023-05-01T17:50:08;14.60;99.90
12223;DHT22;6174;49.058;8.524;2023-05-01T17:52:36;14.60;99.90
12223;DHT22;6174;49.058;8.524;2023-05-01T17:55:03;14.50;99.90
12223;DHT22;6174;49.058;8.524;2023-05-01T17:57:31;14.40;99.90
12223;DHT22;6174;49.058;8.524;2023-05-01T17:59:57;14.40;99.90
12223;DHT22;6174;49.058;8.524;2023-05-01T18:02:24;14.40;99.90
12223;DHT22;6174;49.058;8.524;2023-05-01T18:04:52;14.40;99.90
12223;DHT22;6174;49.058;8.524;2023-05-01T18:07:21;14.30;99.90
12223;DHT22;6174;49.058;8.524;2023-05-01T18:09:47;14.30;99.90
12223;DHT22;6174;49.058;8.524;2023-05-01T18:12:14;14.20;99.90
12223;DHT22;6174;49.058;8.524;2023-05-01T18:14:41;14.10;99.90
12223;DHT22;6174;49.058;8.524;2023-05-01T18:17:07;14.10;99.90
12223;DHT22;6174;49.058;8.524;2023-05-01T18:19:34;14.10;99.90
12223;DHT22;6174;49.058;8.524;2023-05-01T18:22:01;14.10;99.90
12223;DHT22;6174;49.058;8.524;2023-05-01T18:24:30;14.00;99.90
12223;DHT22;6174;49.058;8.524;2023-05-01T18:26:57;14.00;99.90
12223;DHT22;6174;49.058;8.524;2023-05-01T18:29:24;14.00;99.90
12223;DHT22;6174;49.058;8.524;2023-05-01T18:31:51;14.00;99.90
12223;DHT22;6174;49.058;8.524;2023-05-01T18:34:18;13.90;99.90
12223;DHT22;6174;49.058;8.524;2023-05-01T18:36:45;14.00;99.90
12223;DHT22;6174;49.058;8.524;2023-05-01T18:39:12;14.00;99.90
12223;DHT22;6174;49.058;8.524;2023-05-01T18:41:41;14.00;99.90
12223;DHT22;6174;49.058;8.524;2023-05-01T18:44:07;14.00;99.90
12223;DHT22;6174;49.058;8.524;2023-05-01T18:46:34;14.00;99.90
12223;DHT22;6174;49.058;8.524;2023-05-01T18:49:01;14.00;99.90
12223;DHT22;6174;49.058;8.524;2023-05-01T18:51:28;13.90;99.90
12223;DHT22;6174;49.058;8.524;2023-05-01T18:53:54;13.90;99.90
12223;DHT22;6174;49.058;8.524;2023-05-01T18:56:21;13.90;99.90
12223;DHT22;6174;49.058;8.524;2023-05-01T18:58:50;13.90;99.90
12223;DHT22;6174;49.058;8.524;2023-05-01T19:01:16;13.80;99.90
12223;DHT22;6174;49.058;8.524;2023-05-01T19:03:43;13.80;99.90
12223;DHT22;6174;49.058;8.524;2023-05-01T19:06:10;13.80;99.90
12223;DHT22;6174;49.058;8.524;2023-05-01T19:08:37;13.70;99.90
12223;DHT22;6174;49.058;8.524;2023-05-01T19:11:04;13.60;99.90
12223;DHT22;6174;49.058;8.524;2023-05-01T19:13:31;13.70;99.90
12223;DHT22;6174;49.058;8.524;2023-05-01T19:15:59;13.70;99.90
12223;DHT22;6174;49.058;8.524;2023-05-01T19:18:26;13.60;99.90
12223;DHT22;6174;49.058;8.524;2023-05-01T19:20:53;13.50;99.90
12223;DHT22;6174;49.058;8.524;2023-05-01T19:23:19;13.50;99.90
12223;DHT22;6174;49.058;8.524;2023-05-01T19:25:46;13.50;99.90
12223;DHT22;6174;49.058;8.524;2023-05-01T19:28:13;13.40;99.90
12223;DHT22;6174;49.058;8.524;2023-05-01T19:30:40;13.50;99.90
12223;DHT22;6174;49.058;8.524;2023-05-01T19:33:08;13.50;99.90
12223;DHT22;6174;49.058;8.524;2023-05-01T19:35:34;13.50;99.90
12223;DHT22;6174;49.058;8.524;2023-05-01T19:38:02;13.50;99.90
12223;DHT22;6174;49.058;8.524;2023-05-01T19:40:29;13.40;99.90
12223;DHT22;6174;49.058;8.524;2023-05-01T19:42:56;13.50;99.90
12223;DHT22;6174;49.058;8.524;2023-05-01T19:45:23;13.40;99.90
12223;DHT22;6174;49.058;8.524;2023-05-01T19:47:49;13.40;99.90
12223;DHT22;6174;49.058;8.524;2023-05-01T19:50:18;13.40;99.90
12223;DHT22;6174;49.058;8.524;2023-05-01T19:52:44;13.40;99.90
12223;DHT22;6174;49.058;8.524;2023-05-01T19:55:11;13.40;99.90
12223;DHT22;6174;49.058;8.524;2023-05-01T19:57:39;13.40;99.90
12223;DHT22;6174;49.058;8.524;2023-05-01T20:00:07;13.30;99.90
12223;DHT22;6174;49.058;8.524;2023-05-01T20:02:36;13.30;99.90
12223;DHT22;6174;49.058;8.524;2023-05-01T20:05:03;13.30;99.90
12223;DHT22;6174;49.058;8.524;2023-05-01T20:07:31;13.30;99.90
12223;DHT22;6174;49.058;8.524;2023-05-01T20:09:58;13.30;99.90
12223;DHT22;6174;49.058;8.524;2023-05-01T20:12:25;13.20;99.90
12223;DHT22;6174;49.058;8.524;2023-05-01T20:14:52;13.20;99.90
12223;DHT22;6174;49.058;8.524;2023-05-01T20:17:19;13.10;99.90
12223;DHT22;6174;49.058;8.524;2023-05-01T20:19:46;13.20;99.90
12223;DHT22;6174;49.058;8.524;2023-05-01T20:22:12;13.20;99.90
12223;DHT22;6174;49.058;8.524;2023-05-01T20:24:40;13.20;99.90
12223;DHT22;6174;49.058;8.524;2023-05-01T20:27:07;13.10;99.90
12223;DHT22;6174;49.058;8.524;2023-05-01T20:29:34;13.20;99.90
12223;DHT22;6174;49.058;8.524;2023-05-01T20:32:01;13.10;99.90
12223;DHT22;6174;49.058;8.524;2023-05-01T20:34:28;13.00;99.90
12223;DHT22;6174;49.058;8.524;2023-05-01T20:36:54;13.00;99.90
12223;DHT22;6174;49.058;8.524;2023-05-01T20:39:21;13.00;99.90
12223;DHT22;6174;49.058;8.524;2023-05-01T20:41:49;12.90;99.90
12223;DHT22;6174;49.058;8.524;2023-05-01T20:44:16;12.90;99.90
12223;DHT22;6174;49.058;8.524;2023-05-01T20:46:43;12.80;99.90
12223;DHT22;6174;49.058;8.524;2023-05-01T20:49:11;12.80;99.90
12223;DHT22;6174;49.058;8.524;2023-05-01T20:51:37;12.80;99.90
12223;DHT22;6174;49.058;8.524;2023-05-01T20:54:04;12.70;99.90
12223;DHT22;6174;49.058;8.524;2023-05-01T20:56:32;12.70;99.90